sensor_id;sensor_type;location;lat;lon;timestamp;P1;durP1;ratioP1;P2;durP2;ratioP2
25915;SDS011;13719;48.188;11.618;2024-03-02T00:01:15;4.45;;;3.25;;
25915;SDS011;13719;48.188;11.618;2024-03-02T00:03:44;5.78;;;3.35;;
25915;SDS011;13719;48.188;11.618;2024-03-02T00:06:13;5.57;;;3.65;;
25915;SDS011;13719;48.188;11.618;2024-03-02T00:08:42;4.32;;;3.15;;
25915;SDS011;13719;48.188;11.618;2024-03-02T00:11:10;5.85;;;3.42;;
25915;SDS011;13719;48.188;11.618;2024-03-02T00:13:40;4.07;;;2.92;;
25915;SDS011;13719;48.188;11.618;2024-03-02T00:16:09;4.53;;;3.38;;
25915;SDS011;13719;48.188;11.618;2024-03-02T00:18:38;4.45;;;3.20;;
25915;SDS011;13719;48.188;11.618;2024-03-02T00:21:07;5.35;;;3.47;;
25915;SDS011;13719;48.188;11.618;2024-03-02T00:23:38;6.65;;;4.00;;
25915;SDS011;13719;48.188;11.618;2024-03-02T00:26:06;3.67;;;3.05;;
25915;SDS011;13719;48.188;11.618;2024-03-02T00:28:35;5.63;;;3.72;;
25915;SDS011;13719;48.188;11.618;2024-03-02T00:31:05;6.55;;;4.07;;
25915;SDS011;13719;48.188;11.618;2024-03-02T00:33:34;5.35;;;3.80;;
25915;SDS011;13719;48.188;11.618;2024-03-02T00:36:04;6.28;;;3.80;;
25915;SDS011;13719;48.188;11.618;2024-03-02T00:38:33;9.13;;;4.55;;
25915;SDS011;13719;48.188;11.618;2024-03-02T00:41:05;6.80;;;4.07;;
25915;SDS011;13719;48.188;11.618;2024-03-02T00:43:43;7.03;;;3.95;;
25915;SDS011;13719;48.188;11.618;2024-03-02T00:46:17;6.57;;;4.03;;
25915;SDS011;13719;48.188;11.618;2024-03-02T00:48:48;4.93;;;3.22;;
25915;SDS011;13719;48.188;11.618;2024-03-02T00:51:19;5.85;;;3.78;;
25915;SDS011;13719;48.188;11.618;2024-03-02T00:53:47;5.40;;;3.10;;
25915;SDS011;13719;48.188;11.618;2024-03-02T00:56:18;6.47;;;3.40;;
25915;SDS011;13719;48.188;11.618;2024-03-02T00:58:46;5.53;;;3.95;;
25915;SDS011;13719;48.188;11.618;2024-03-02T01:01:15;5.50;;;3.60;;
25915;SDS011;13719;48.188;11.618;2024-03-02T01:03:43;4.80;;;3.40;;
25915;SDS011;13719;48.188;11.618;2024-03-02T01:06:11;5.55;;;3.97;;
25915;SDS011;13719;48.188;11.618;2024-03-02T01:08:39;4.85;;;3.33;;
25915;SDS011;13719;48.188;11.618;2024-03-02T01:11:08;6.40;;;4.15;;
25915;SDS011;13719;48.188;11.618;2024-03-02T01:13:38;4.88;;;3.42;;
25915;SDS011;13719;48.188;11.618;2024-03-02T01:16:06;5.97;;;3.72;;
25915;SDS011;13719;48.188;11.618;2024-03-02T01:18:35;5.30;;;3.33;;
25915;SDS011;13719;48.188;11.618;2024-03-02T01:21:03;6.00;;;3.80;;
25915;SDS011;13719;48.188;11.618;2024-03-02T01:23:32;6.32;;;3.45;;
25915;SDS011;13719;48.188;11.618;2024-03-02T01:26:00;6.13;;;4.05;;
25915;SDS011;13719;48.188;11.618;2024-03-02T01:28:28;6.43;;;3.83;;
25915;SDS011;13719;48.188;11.618;2024-03-02T01:30:58;6.35;;;4.05;;
25915;SDS011;13719;48.188;11.618;2024-03-02T01:33:27;6.35;;;4.13;;
25915;SDS011;13719;48.188;11.618;2024-03-02T01:35:55;5.13;;;3.85;;
25915;SDS011;13719;48.188;11.618;2024-03-02T01:38:24;6.63;;;4.03;;
25915;SDS011;13719;48.188;11.618;2024-03-02T01:40:52;6.13;;;3.85;;
25915;SDS011;13719;48.188;11.618;2024-03-02T01:43:23;6.07;;;3.67;;
25915;SDS011;13719;48.188;11.618;2024-03-02T01:45:52;4.32;;;3.55;;
25915;SDS011;13719;48.188;11.618;2024-03-02T01:48:22;6.53;;;3.60;;
25915;SDS011;13719;48.188;11.618;2024-03-02T01:50:50;5.60;;;4.22;;
25915;SDS011;13719;48.188;11.618;2024-03-02T01:53:19;6.60;;;4.05;;
25915;SDS011;13719;48.188;11.618;2024-03-02T01:55:47;5.63;;;3.65;;
25915;SDS011;13719;48.188;11.618;2024-03-02T01:58:16;4.88;;;3.50;;
25915;SDS011;13719;48.188;11.618;2024-03-02T02:00:44;5.93;;;3.28;;
25915;SDS011;13719;48.188;11.618;2024-03-02T02:03:14;6.55;;;3.65;;
25915;SDS011;13719;48.188;11.618;2024-03-02T02:05:44;4.97;;;3.55;;
25915;SDS011;13719;48.188;11.618;2024-03-02T02:08:14;4.88;;;3.38;;
25915;SDS011;13719;48.188;11.618;2024-03-02T02:10:42;5.63;;;3.45;;
25915;SDS011;13719;48.188;11.618;2024-03-02T02:13:11;3.35;;;2.80;;
25915;SDS011;13719;48.188;11.618;2024-03-02T02:15:40;5.97;;;3.90;;
25915;SDS011;13719;48.188;11.618;2024-03-02T02:18:09;5.70;;;3.40;;
25915;SDS011;13719;48.188;11.618;2024-03-02T02:20:37;7.80;;;3.90;;
25915;SDS011;13719;48.188;11.618;2024-03-02T02:23:06;5.60;;;3.75;;
25915;SDS011;13719;48.188;11.618;2024-03-02T02:25:36;5.45;;;3.60;;
25915;SDS011;13719;48.188;11.618;2024-03-02T02:28:05;6.10;;;3.80;;
25915;SDS011;13719;48.188;11.618;2024-03-02T02:30:33;7.13;;;3.65;;
25915;SDS011;13719;48.188;11.618;2024-03-02T02:33:02;5.93;;;3.55;;
25915;SDS011;13719;48.188;11.618;2024-03-02T02:35:30;6.53;;;3.55;;
25915;SDS011;13719;48.188;11.618;2024-03-02T02:37:59;4.65;;;3.20;;
25915;SDS011;13719;48.188;11.618;2024-03-02T02:40:29;5.55;;;3.38;;
25915;SDS011;13719;48.188;11.618;2024-03-02T02:42:57;5.80;;;3.28;;
25915;SDS011;13719;48.188;11.618;2024-03-02T02:45:26;5.40;;;3.20;;
25915;SDS011;13719;48.188;11.618;2024-03-02T02:47:55;5.15;;;3.25;;
25915;SDS011;13719;48.188;11.618;2024-03-02T02:50:23;4.35;;;3.13;;
25915;SDS011;13719;48.188;11.618;2024-03-02T02:52:51;4.97;;;3.13;;
25915;SDS011;13719;48.188;11.618;2024-03-02T02:55:20;4.38;;;3.25;;
25915;SDS011;13719;48.188;11.618;2024-03-02T02:57:49;4.20;;;3.08;;
25915;SDS011;13719;48.188;11.618;2024-03-02T03:00:18;7.20;;;3.10;;
25915;SDS011;13719;48.188;11.618;2024-03-02T03:02:49;3.70;;;2.90;;
25915;SDS011;13719;48.188;11.618;2024-03-02T03:05:17;5.50;;;3.75;;
25915;SDS011;13719;48.188;11.618;2024-03-02T03:07:45;4.68;;;3.20;;
25915;SDS011;13719;48.188;11.618;2024-03-02T03:10:16;4.82;;;3.20;;
25915;SDS011;13719;48.188;11.618;2024-03-02T03:12:49;4.22;;;3.38;;
25915;SDS011;13719;48.188;11.618;2024-03-02T03:15:18;4.93;;;3.50;;
25915;SDS011;13719;48.188;11.618;2024-03-02T03:17:46;3.53;;;2.90;;
25915;SDS011;13719;48.188;11.618;2024-03-02T03:20:15;4.68;;;3.38;;
25915;SDS011;13719;48.188;11.618;2024-03-02T03:22:43;4.45;;;3.05;;
25915;SDS011;13719;48.188;11.618;2024-03-02T03:25:12;6.47;;;4.13;;
25915;SDS011;13719;48.188;11.618;2024-03-02T03:27:40;5.55;;;3.47;;
25915;SDS011;13719;48.188;11.618;2024-03-02T03:30:10;4.20;;;3.10;;
25915;SDS011;13719;48.188;11.618;2024-03-02T03:32:39;6.20;;;3.42;;
25915;SDS011;13719;48.188;11.618;2024-03-02T03:35:07;6.53;;;3.25;;
25915;SDS011;13719;48.188;11.618;2024-03-02T03:37:36;5.57;;;3.38;;
25915;SDS011;13719;48.188;11.618;2024-03-02T03:40:05;5.00;;;3.50;;
25915;SDS011;13719;48.188;11.618;2024-03-02T03:42:37;5.55;;;3.22;;
25915;SDS011;13719;48.188;11.618;2024-03-02T03:45:06;5.30;;;3.55;;
25915;SDS011;13719;48.188;11.618;2024-03-02T03:47:36;5.63;;;3.58;;
25915;SDS011;13719;48.188;11.618;2024-03-02T03:50:05;4.30;;;3.15;;
25915;SDS011;13719;48.188;11.618;2024-03-02T03:52:34;4.15;;;3.10;;
25915;SDS011;13719;48.188;11.618;2024-03-02T03:55:03;5.47;;;4.03;;
25915;SDS011;13719;48.188;11.618;2024-03-02T03:57:32;4.18;;;3.13;;
25915;SDS011;13719;48.188;11.618;2024-03-02T04:00:01;5.88;;;3.83;;
25915;SDS011;13719;48.188;11.618;2024-03-02T04:02:30;7.13;;;3.40;;
25915;SDS011;13719;48.188;11.618;2024-03-02T04:04:59;5.43;;;3.40;;
25915;SDS011;13719;48.188;11.618;2024-03-02T04:07:31;5.38;;;3.55;;
25915;SDS011;13719;48.188;11.618;2024-03-02T04:09:59;5.82;;;3.67;;
25915;SDS011;13719;48.188;11.618;2024-03-02T04:12:28;4.93;;;3.53;;
25915;SDS011;13719;48.188;11.618;2024-03-02T04:14:56;5.65;;;3.78;;
25915;SDS011;13719;48.188;11.618;2024-03-02T04:17:24;4.75;;;3.65;;
25915;SDS011;13719;48.188;11.618;2024-03-02T04:19:53;4.25;;;3.40;;
25915;SDS011;13719;48.188;11.618;2024-03-02T04:22:22;6.50;;;3.95;;
25915;SDS011;13719;48.188;11.618;2024-03-02T04:24:51;7.00;;;4.25;;
25915;SDS011;13719;48.188;11.618;2024-03-02T04:27:20;6.50;;;4.00;;
25915;SDS011;13719;48.188;11.618;2024-03-02T04:29:48;6.47;;;4.45;;
25915;SDS011;13719;48.188;11.618;2024-03-02T04:32:17;4.95;;;3.55;;
25915;SDS011;13719;48.188;11.618;2024-03-02T04:34:46;4.70;;;2.90;;
25915;SDS011;13719;48.188;11.618;2024-03-02T04:37:15;6.35;;;4.18;;
25915;SDS011;13719;48.188;11.618;2024-03-02T04:39:44;5.55;;;3.30;;
25915;SDS011;13719;48.188;11.618;2024-03-02T04:42:13;5.00;;;3.72;;
25915;SDS011;13719;48.188;11.618;2024-03-02T04:44:41;5.60;;;3.63;;
25915;SDS011;13719;48.188;11.618;2024-03-02T04:47:09;5.90;;;3.90;;
25915;SDS011;13719;48.188;11.618;2024-03-02T04:49:38;5.47;;;3.75;;
25915;SDS011;13719;48.188;11.618;2024-03-02T04:52:07;7.32;;;4.40;;
25915;SDS011;13719;48.188;11.618;2024-03-02T04:54:35;4.53;;;3.60;;
25915;SDS011;13719;48.188;11.618;2024-03-02T04:57:26;6.75;;;4.13;;
25915;SDS011;13719;48.188;11.618;2024-03-02T04:59:54;6.38;;;4.15;;
25915;SDS011;13719;48.188;11.618;2024-03-02T05:02:23;5.72;;;3.75;;
25915;SDS011;13719;48.188;11.618;2024-03-02T05:04:51;6.32;;;4.00;;
25915;SDS011;13719;48.188;11.618;2024-03-02T05:07:19;4.82;;;3.35;;
25915;SDS011;13719;48.188;11.618;2024-03-02T05:09:48;5.07;;;3.58;;
25915;SDS011;13719;48.188;11.618;2024-03-02T05:12:16;5.78;;;3.97;;
25915;SDS011;13719;48.188;11.618;2024-03-02T05:15:08;5.30;;;3.63;;
25915;SDS011;13719;48.188;11.618;2024-03-02T05:17:36;6.38;;;4.10;;
25915;SDS011;13719;48.188;11.618;2024-03-02T05:20:05;6.75;;;4.22;;
25915;SDS011;13719;48.188;11.618;2024-03-02T05:22:34;7.40;;;3.92;;
25915;SDS011;13719;48.188;11.618;2024-03-02T05:25:03;5.70;;;4.18;;
25915;SDS011;13719;48.188;11.618;2024-03-02T05:27:31;5.38;;;3.42;;
25915;SDS011;13719;48.188;11.618;2024-03-02T05:30:00;5.10;;;3.63;;
25915;SDS011;13719;48.188;11.618;2024-03-02T05:32:30;5.78;;;4.03;;
25915;SDS011;13719;48.188;11.618;2024-03-02T05:34:58;5.65;;;3.97;;
25915;SDS011;13719;48.188;11.618;2024-03-02T05:37:27;6.38;;;4.10;;
25915;SDS011;13719;48.188;11.618;2024-03-02T05:39:55;5.80;;;3.92;;
25915;SDS011;13719;48.188;11.618;2024-03-02T05:42:23;8.02;;;3.97;;
25915;SDS011;13719;48.188;11.618;2024-03-02T05:44:53;5.93;;;3.63;;
25915;SDS011;13719;48.188;11.618;2024-03-02T05:47:21;6.68;;;4.00;;
25915;SDS011;13719;48.188;11.618;2024-03-02T05:49:51;5.57;;;3.58;;
25915;SDS011;13719;48.188;11.618;2024-03-02T05:52:19;7.88;;;4.25;;
25915;SDS011;13719;48.188;11.618;2024-03-02T05:54:48;6.50;;;4.43;;
25915;SDS011;13719;48.188;11.618;2024-03-02T05:57:16;5.40;;;4.00;;
25915;SDS011;13719;48.188;11.618;2024-03-02T05:59:58;6.80;;;3.80;;
25915;SDS011;13719;48.188;11.618;2024-03-02T06:02:27;6.82;;;3.90;;
25915;SDS011;13719;48.188;11.618;2024-03-02T06:04:56;6.10;;;3.72;;
25915;SDS011;13719;48.188;11.618;2024-03-02T06:07:25;6.90;;;4.97;;
25915;SDS011;13719;48.188;11.618;2024-03-02T06:09:53;7.03;;;3.72;;
25915;SDS011;13719;48.188;11.618;2024-03-02T06:12:22;6.22;;;4.07;;
25915;SDS011;13719;48.188;11.618;2024-03-02T06:14:50;7.18;;;4.18;;
25915;SDS011;13719;48.188;11.618;2024-03-02T06:17:18;6.00;;;3.90;;
25915;SDS011;13719;48.188;11.618;2024-03-02T06:19:47;5.82;;;3.97;;
25915;SDS011;13719;48.188;11.618;2024-03-02T06:22:16;6.55;;;4.35;;
25915;SDS011;13719;48.188;11.618;2024-03-02T06:24:45;7.00;;;4.07;;
25915;SDS011;13719;48.188;11.618;2024-03-02T06:27:14;5.97;;;4.15;;
25915;SDS011;13719;48.188;11.618;2024-03-02T06:29:42;7.55;;;4.50;;
25915;SDS011;13719;48.188;11.618;2024-03-02T06:32:10;6.18;;;4.30;;
25915;SDS011;13719;48.188;11.618;2024-03-02T06:34:39;6.00;;;4.15;;
25915;SDS011;13719;48.188;11.618;2024-03-02T06:37:07;9.15;;;4.63;;
25915;SDS011;13719;48.188;11.618;2024-03-02T06:39:37;8.00;;;4.28;;
25915;SDS011;13719;48.188;11.618;2024-03-02T06:42:05;6.43;;;4.10;;
25915;SDS011;13719;48.188;11.618;2024-03-02T06:44:33;6.05;;;3.95;;
25915;SDS011;13719;48.188;11.618;2024-03-02T06:47:02;6.32;;;4.03;;
25915;SDS011;13719;48.188;11.618;2024-03-02T06:49:31;8.35;;;4.05;;
25915;SDS011;13719;48.188;11.618;2024-03-02T06:52:00;6.97;;;4.57;;
25915;SDS011;13719;48.188;11.618;2024-03-02T06:54:29;6.78;;;4.47;;
25915;SDS011;13719;48.188;11.618;2024-03-02T06:56:58;6.60;;;4.35;;
25915;SDS011;13719;48.188;11.618;2024-03-02T06:59:27;7.00;;;4.72;;
25915;SDS011;13719;48.188;11.618;2024-03-02T07:01:55;8.70;;;5.30;;
25915;SDS011;13719;48.188;11.618;2024-03-02T07:04:24;6.95;;;4.63;;
25915;SDS011;13719;48.188;11.618;2024-03-02T07:06:52;7.78;;;5.32;;
25915;SDS011;13719;48.188;11.618;2024-03-02T07:09:21;7.75;;;4.70;;
25915;SDS011;13719;48.188;11.618;2024-03-02T07:11:49;8.30;;;4.38;;
25915;SDS011;13719;48.188;11.618;2024-03-02T07:14:19;7.20;;;4.53;;
25915;SDS011;13719;48.188;11.618;2024-03-02T07:16:48;8.82;;;4.90;;
25915;SDS011;13719;48.188;11.618;2024-03-02T07:19:16;6.75;;;4.85;;
25915;SDS011;13719;48.188;11.618;2024-03-02T07:21:44;8.38;;;5.28;;
25915;SDS011;13719;48.188;11.618;2024-03-02T07:24:13;7.85;;;5.30;;
25915;SDS011;13719;48.188;11.618;2024-03-02T07:26:42;8.38;;;5.05;;
25915;SDS011;13719;48.188;11.618;2024-03-02T07:29:14;7.75;;;4.82;;
25915;SDS011;13719;48.188;11.618;2024-03-02T07:31:43;9.98;;;5.82;;
25915;SDS011;13719;48.188;11.618;2024-03-02T07:34:12;7.93;;;5.43;;
25915;SDS011;13719;48.188;11.618;2024-03-02T07:36:40;7.35;;;5.30;;
25915;SDS011;13719;48.188;11.618;2024-03-02T07:39:09;8.95;;;5.60;;
25915;SDS011;13719;48.188;11.618;2024-03-02T07:41:37;8.27;;;5.40;;
25915;SDS011;13719;48.188;11.618;2024-03-02T07:44:05;8.48;;;5.50;;
25915;SDS011;13719;48.188;11.618;2024-03-02T07:46:34;7.32;;;4.78;;
25915;SDS011;13719;48.188;11.618;2024-03-02T07:49:04;9.85;;;5.85;;
25915;SDS011;13719;48.188;11.618;2024-03-02T07:51:32;9.52;;;5.47;;
25915;SDS011;13719;48.188;11.618;2024-03-02T07:54:00;10.63;;;5.95;;
25915;SDS011;13719;48.188;11.618;2024-03-02T07:56:29;8.43;;;5.30;;
25915;SDS011;13719;48.188;11.618;2024-03-02T07:58:57;8.93;;;5.75;;
25915;SDS011;13719;48.188;11.618;2024-03-02T08:01:27;9.52;;;5.95;;
25915;SDS011;13719;48.188;11.618;2024-03-02T08:03:56;9.75;;;6.03;;
25915;SDS011;13719;48.188;11.618;2024-03-02T08:06:27;8.52;;;4.93;;
25915;SDS011;13719;48.188;11.618;2024-03-02T08:08:56;11.13;;;5.97;;
25915;SDS011;13719;48.188;11.618;2024-03-02T08:11:24;11.18;;;5.97;;
25915;SDS011;13719;48.188;11.618;2024-03-02T08:13:53;8.95;;;6.00;;
25915;SDS011;13719;48.188;11.618;2024-03-02T08:16:22;8.93;;;5.65;;
25915;SDS011;13719;48.188;11.618;2024-03-02T08:18:51;11.23;;;6.65;;
25915;SDS011;13719;48.188;11.618;2024-03-02T08:21:20;9.43;;;5.75;;
25915;SDS011;13719;48.188;11.618;2024-03-02T08:23:50;9.70;;;6.13;;
25915;SDS011;13719;48.188;11.618;2024-03-02T08:26:18;8.88;;;5.97;;
25915;SDS011;13719;48.188;11.618;2024-03-02T08:28:46;10.10;;;6.53;;
25915;SDS011;13719;48.188;11.618;2024-03-02T08:31:15;10.65;;;6.45;;
25915;SDS011;13719;48.188;11.618;2024-03-02T08:33:43;12.25;;;6.30;;
25915;SDS011;13719;48.188;11.618;2024-03-02T08:36:12;11.98;;;5.82;;
25915;SDS011;13719;48.188;11.618;2024-03-02T08:38:40;10.52;;;6.65;;
25915;SDS011;13719;48.188;11.618;2024-03-02T08:41:11;10.32;;;6.15;;
25915;SDS011;13719;48.188;11.618;2024-03-02T08:43:42;12.25;;;7.32;;
25915;SDS011;13719;48.188;11.618;2024-03-02T08:46:10;12.95;;;7.15;;
25915;SDS011;13719;48.188;11.618;2024-03-02T08:48:39;11.90;;;7.32;;
25915;SDS011;13719;48.188;11.618;2024-03-02T08:51:07;11.80;;;7.20;;
25915;SDS011;13719;48.188;11.618;2024-03-02T08:53:36;13.25;;;7.22;;
25915;SDS011;13719;48.188;11.618;2024-03-02T08:56:05;11.13;;;7.13;;
25915;SDS011;13719;48.188;11.618;2024-03-02T08:58:35;14.18;;;7.18;;
25915;SDS011;13719;48.188;11.618;2024-03-02T09:01:03;13.02;;;7.75;;
25915;SDS011;13719;48.188;11.618;2024-03-02T09:03:33;14.88;;;8.00;;
25915;SDS011;13719;48.188;11.618;2024-03-02T09:06:02;13.73;;;8.13;;
25915;SDS011;13719;48.188;11.618;2024-03-02T09:08:30;13.35;;;7.55;;
25915;SDS011;13719;48.188;11.618;2024-03-02T09:10:59;14.70;;;7.78;;
25915;SDS011;13719;48.188;11.618;2024-03-02T09:13:27;13.38;;;7.93;;
25915;SDS011;13719;48.188;11.618;2024-03-02T09:15:57;15.75;;;7.57;;
25915;SDS011;13719;48.188;11.618;2024-03-02T09:18:25;11.20;;;6.68;;
25915;SDS011;13719;48.188;11.618;2024-03-02T09:20:54;12.88;;;6.85;;
25915;SDS011;13719;48.188;11.618;2024-03-02T09:23:22;11.75;;;6.63;;
25915;SDS011;13719;48.188;11.618;2024-03-02T09:25:50;12.68;;;6.88;;
25915;SDS011;13719;48.188;11.618;2024-03-02T09:28:19;10.82;;;6.20;;
25915;SDS011;13719;48.188;11.618;2024-03-02T09:30:47;10.82;;;6.47;;
25915;SDS011;13719;48.188;11.618;2024-03-02T09:33:17;9.77;;;5.88;;
25915;SDS011;13719;48.188;11.618;2024-03-02T09:35:45;9.55;;;5.97;;
25915;SDS011;13719;48.188;11.618;2024-03-02T09:38:16;14.30;;;6.75;;
25915;SDS011;13719;48.188;11.618;2024-03-02T09:40:44;10.80;;;6.07;;
25915;SDS011;13719;48.188;11.618;2024-03-02T09:43:13;11.35;;;6.60;;
25915;SDS011;13719;48.188;11.618;2024-03-02T09:45:41;11.93;;;6.28;;
25915;SDS011;13719;48.188;11.618;2024-03-02T09:48:10;10.75;;;6.75;;
25915;SDS011;13719;48.188;11.618;2024-03-02T09:50:39;10.82;;;6.53;;
25915;SDS011;13719;48.188;11.618;2024-03-02T09:53:09;13.88;;;7.60;;
25915;SDS011;13719;48.188;11.618;2024-03-02T09:55:38;13.57;;;7.18;;
25915;SDS011;13719;48.188;11.618;2024-03-02T09:58:10;14.93;;;8.13;;
25915;SDS011;13719;48.188;11.618;2024-03-02T10:00:38;11.75;;;6.80;;
25915;SDS011;13719;48.188;11.618;2024-03-02T10:03:10;13.10;;;7.10;;
25915;SDS011;13719;48.188;11.618;2024-03-02T10:05:41;16.55;;;8.52;;
25915;SDS011;13719;48.188;11.618;2024-03-02T10:08:09;14.10;;;7.63;;
25915;SDS011;13719;48.188;11.618;2024-03-02T10:10:38;12.10;;;7.32;;
25915;SDS011;13719;48.188;11.618;2024-03-02T10:13:08;14.52;;;8.02;;
25915;SDS011;13719;48.188;11.618;2024-03-02T10:15:37;15.70;;;8.15;;
25915;SDS011;13719;48.188;11.618;2024-03-02T10:18:08;16.08;;;8.50;;
25915;SDS011;13719;48.188;11.618;2024-03-02T10:20:38;13.77;;;7.05;;
25915;SDS011;13719;48.188;11.618;2024-03-02T10:23:11;14.35;;;7.28;;
25915;SDS011;13719;48.188;11.618;2024-03-02T10:25:39;16.00;;;8.02;;
25915;SDS011;13719;48.188;11.618;2024-03-02T10:28:22;18.55;;;7.75;;
25915;SDS011;13719;48.188;11.618;2024-03-02T10:30:51;11.23;;;6.72;;
25915;SDS011;13719;48.188;11.618;2024-03-02T10:33:20;14.82;;;7.13;;
25915;SDS011;13719;48.188;11.618;2024-03-02T10:35:48;13.13;;;6.93;;
25915;SDS011;13719;48.188;11.618;2024-03-02T10:38:19;12.02;;;6.65;;
25915;SDS011;13719;48.188;11.618;2024-03-02T10:40:48;10.23;;;6.30;;
25915;SDS011;13719;48.188;11.618;2024-03-02T10:43:16;11.43;;;5.97;;
25915;SDS011;13719;48.188;11.618;2024-03-02T10:45:45;14.68;;;7.00;;
25915;SDS011;13719;48.188;11.618;2024-03-02T10:48:15;13.15;;;7.35;;
25915;SDS011;13719;48.188;11.618;2024-03-02T10:50:43;13.50;;;7.25;;
25915;SDS011;13719;48.188;11.618;2024-03-02T10:53:12;16.83;;;6.85;;
25915;SDS011;13719;48.188;11.618;2024-03-02T10:55:42;12.13;;;7.50;;
25915;SDS011;13719;48.188;11.618;2024-03-02T10:58:10;17.92;;;7.43;;
25915;SDS011;13719;48.188;11.618;2024-03-02T11:00:41;17.55;;;8.15;;
25915;SDS011;13719;48.188;11.618;2024-03-02T11:03:12;16.80;;;7.72;;
25915;SDS011;13719;48.188;11.618;2024-03-02T11:05:43;13.48;;;7.68;;
25915;SDS011;13719;48.188;11.618;2024-03-02T11:08:12;14.98;;;8.15;;
25915;SDS011;13719;48.188;11.618;2024-03-02T11:10:45;15.95;;;8.07;;
25915;SDS011;13719;48.188;11.618;2024-03-02T11:13:18;15.95;;;8.20;;
25915;SDS011;13719;48.188;11.618;2024-03-02T11:15:50;16.45;;;8.48;;
25915;SDS011;13719;48.188;11.618;2024-03-02T11:18:20;13.60;;;7.45;;
25915;SDS011;13719;48.188;11.618;2024-03-02T11:20:48;15.40;;;8.68;;
25915;SDS011;13719;48.188;11.618;2024-03-02T11:23:17;14.57;;;8.48;;
25915;SDS011;13719;48.188;11.618;2024-03-02T11:25:47;17.70;;;9.23;;
25915;SDS011;13719;48.188;11.618;2024-03-02T11:28:15;13.20;;;7.40;;
25915;SDS011;13719;48.188;11.618;2024-03-02T11:30:50;15.27;;;8.25;;
25915;SDS011;13719;48.188;11.618;2024-03-02T11:33:24;14.20;;;7.60;;
25915;SDS011;13719;48.188;11.618;2024-03-02T11:35:54;14.18;;;8.18;;
25915;SDS011;13719;48.188;11.618;2024-03-02T11:38:27;13.13;;;8.32;;
25915;SDS011;13719;48.188;11.618;2024-03-02T11:40:57;13.85;;;7.43;;
25915;SDS011;13719;48.188;11.618;2024-03-02T11:43:27;14.02;;;8.27;;
25915;SDS011;13719;48.188;11.618;2024-03-02T11:45:56;12.95;;;7.47;;
25915;SDS011;13719;48.188;11.618;2024-03-02T11:48:25;15.27;;;8.80;;
25915;SDS011;13719;48.188;11.618;2024-03-02T11:50:54;15.18;;;7.75;;
25915;SDS011;13719;48.188;11.618;2024-03-02T11:53:26;15.30;;;8.32;;
25915;SDS011;13719;48.188;11.618;2024-03-02T11:55:58;13.85;;;7.47;;
25915;SDS011;13719;48.188;11.618;2024-03-02T11:58:27;14.88;;;8.65;;
25915;SDS011;13719;48.188;11.618;2024-03-02T12:00:56;15.30;;;7.93;;
25915;SDS011;13719;48.188;11.618;2024-03-02T12:03:25;14.30;;;7.97;;
25915;SDS011;13719;48.188;11.618;2024-03-02T12:05:54;14.13;;;8.02;;
25915;SDS011;13719;48.188;11.618;2024-03-02T12:08:22;11.80;;;7.57;;
25915;SDS011;13719;48.188;11.618;2024-03-02T12:10:58;12.70;;;8.07;;
25915;SDS011;13719;48.188;11.618;2024-03-02T12:13:29;12.82;;;7.95;;
25915;SDS011;13719;48.188;11.618;2024-03-02T12:15:59;13.75;;;7.80;;
25915;SDS011;13719;48.188;11.618;2024-03-02T12:18:28;17.15;;;7.93;;
25915;SDS011;13719;48.188;11.618;2024-03-02T12:20:56;13.57;;;7.85;;
25915;SDS011;13719;48.188;11.618;2024-03-02T12:23:25;12.68;;;7.75;;
25915;SDS011;13719;48.188;11.618;2024-03-02T12:25:53;13.77;;;7.40;;
25915;SDS011;13719;48.188;11.618;2024-03-02T12:28:24;11.05;;;7.72;;
25915;SDS011;13719;48.188;11.618;2024-03-02T12:30:52;14.05;;;7.45;;
25915;SDS011;13719;48.188;11.618;2024-03-02T12:33:21;12.20;;;7.18;;
25915;SDS011;13719;48.188;11.618;2024-03-02T12:35:49;14.00;;;7.93;;
25915;SDS011;13719;48.188;11.618;2024-03-02T12:38:18;11.20;;;6.97;;
25915;SDS011;13719;48.188;11.618;2024-03-02T12:40:47;11.38;;;7.07;;
25915;SDS011;13719;48.188;11.618;2024-03-02T12:43:16;10.25;;;6.43;;
25915;SDS011;13719;48.188;11.618;2024-03-02T12:45:46;11.98;;;7.10;;
25915;SDS011;13719;48.188;11.618;2024-03-02T12:48:14;13.25;;;7.63;;
25915;SDS011;13719;48.188;11.618;2024-03-02T12:50:43;11.52;;;7.25;;
25915;SDS011;13719;48.188;11.618;2024-03-02T12:53:14;16.33;;;7.55;;
25915;SDS011;13719;48.188;11.618;2024-03-02T12:55:43;14.88;;;8.02;;
25915;SDS011;13719;48.188;11.618;2024-03-02T12:58:21;11.95;;;7.03;;
25915;SDS011;13719;48.188;11.618;2024-03-02T13:00:55;12.88;;;7.63;;
25915;SDS011;13719;48.188;11.618;2024-03-02T13:03:34;12.85;;;7.60;;
25915;SDS011;13719;48.188;11.618;2024-03-02T13:06:03;12.52;;;7.68;;
25915;SDS011;13719;48.188;11.618;2024-03-02T13:08:32;15.63;;;8.68;;
25915;SDS011;13719;48.188;11.618;2024-03-02T13:11:01;12.02;;;7.82;;
25915;SDS011;13719;48.188;11.618;2024-03-02T13:13:30;10.95;;;7.43;;
25915;SDS011;13719;48.188;11.618;2024-03-02T13:16:00;14.13;;;8.75;;
25915;SDS011;13719;48.188;11.618;2024-03-02T13:18:28;15.43;;;8.65;;
25915;SDS011;13719;48.188;11.618;2024-03-02T13:20:57;12.73;;;8.13;;
25915;SDS011;13719;48.188;11.618;2024-03-02T13:23:26;11.15;;;7.55;;
25915;SDS011;13719;48.188;11.618;2024-03-02T13:25:57;14.70;;;7.80;;
25915;SDS011;13719;48.188;11.618;2024-03-02T13:28:26;12.55;;;7.78;;
25915;SDS011;13719;48.188;11.618;2024-03-02T13:30:54;11.25;;;7.65;;
25915;SDS011;13719;48.188;11.618;2024-03-02T13:33:24;14.77;;;8.52;;
25915;SDS011;13719;48.188;11.618;2024-03-02T13:35:52;13.05;;;8.23;;
25915;SDS011;13719;48.188;11.618;2024-03-02T13:38:21;13.25;;;8.38;;
25915;SDS011;13719;48.188;11.618;2024-03-02T13:40:49;14.15;;;8.13;;
25915;SDS011;13719;48.188;11.618;2024-03-02T13:43:18;14.48;;;8.27;;
25915;SDS011;13719;48.188;11.618;2024-03-02T13:45:46;13.40;;;8.50;;
25915;SDS011;13719;48.188;11.618;2024-03-02T13:48:15;13.68;;;8.05;;
25915;SDS011;13719;48.188;11.618;2024-03-02T13:50:45;13.48;;;7.82;;
25915;SDS011;13719;48.188;11.618;2024-03-02T13:53:13;15.02;;;8.27;;
25915;SDS011;13719;48.188;11.618;2024-03-02T13:55:41;13.18;;;7.97;;
25915;SDS011;13719;48.188;11.618;2024-03-02T13:58:10;14.40;;;8.18;;
25915;SDS011;13719;48.188;11.618;2024-03-02T14:00:38;15.75;;;8.65;;
25915;SDS011;13719;48.188;11.618;2024-03-02T14:03:07;16.13;;;8.35;;
25915;SDS011;13719;48.188;11.618;2024-03-02T14:05:35;13.35;;;7.95;;
25915;SDS011;13719;48.188;11.618;2024-03-02T14:08:05;14.02;;;7.60;;
25915;SDS011;13719;48.188;11.618;2024-03-02T14:10:34;14.48;;;8.50;;
25915;SDS011;13719;48.188;11.618;2024-03-02T14:13:02;13.95;;;7.80;;
25915;SDS011;13719;48.188;11.618;2024-03-02T14:15:31;11.02;;;6.47;;
25915;SDS011;13719;48.188;11.618;2024-03-02T14:17:59;12.43;;;7.32;;
25915;SDS011;13719;48.188;11.618;2024-03-02T14:20:28;14.88;;;8.27;;
25915;SDS011;13719;48.188;11.618;2024-03-02T14:22:56;11.30;;;7.18;;
25915;SDS011;13719;48.188;11.618;2024-03-02T14:25:26;11.02;;;6.88;;
25915;SDS011;13719;48.188;11.618;2024-03-02T14:27:57;11.38;;;6.70;;
25915;SDS011;13719;48.188;11.618;2024-03-02T14:30:45;13.85;;;7.25;;
25915;SDS011;13719;48.188;11.618;2024-03-02T14:33:14;11.32;;;6.47;;
25915;SDS011;13719;48.188;11.618;2024-03-02T14:35:43;11.77;;;7.18;;
25915;SDS011;13719;48.188;11.618;2024-03-02T14:38:12;13.15;;;7.30;;
25915;SDS011;13719;48.188;11.618;2024-03-02T14:40:43;13.18;;;7.13;;